Time;durP1;ratioP1;P1;durP2;ratioP2;P2;SDS_P1;SDS_P2;PMS_P1;PMS_P2;Temp;Humidity;BMP_temperature;BMP_pressure;BME280_temperature;BME280_humidity;BME280_pressure;Samples;Min_cycle;Max_cycle;Signal;HPM_P1;HPM_P2
2022/08/01 00:01:54;;;;;;;12.23;4.45;;;20.70;99.90;;;;;;5032336;28;20021;-77
2022/08/01 00:04:20;;;;;;;9.15;4.95;;;20.70;99.90;;;;;;5032342;28;20467;-76
2022/08/01 00:06:46;;;;;;;12.20;5.35;;;20.70;99.90;;;;;;5030921;28;20049;-77
2022/08/01 00:09:11;;;;;;;9.02;5.22;;;20.80;99.90;;;;;;5031878;28;20043;-77
2022/08/01 00:11:37;;;;;;;14.35;4.75;;;20.60;99.90;;;;;;5031548;28;20144;-75
2022/08/01 00:14:03;;;;;;;8.00;5.50;;;20.70;99.90;;;;;;5030877;28;20021;-76
2022/08/01 00:16:29;;;;;;;9.95;5.25;;;20.70;99.90;;;;;;5031999;28;20104;-78
2022/08/01 00:18:55;;;;;;;8.65;4.90;;;20.70;99.90;;;;;;5031632;28;20100;-77
2022/08/01 00:21:21;;;;;;;6.85;4.90;;;20.60;99.90;;;;;;5031100;28;20025;-77
2022/08/01 00:23:48;;;;;;;8.70;5.43;;;20.80;99.90;;;;;;5030964;28;20376;-77
2022/08/01 00:26:14;;;;;;;9.10;5.38;;;20.60;99.90;;;;;;5031084;28;20025;-78
2022/08/01 00:28:40;;;;;;;9.55;5.55;;;20.60;99.90;;;;;;5031445;28;20497;-77
2022/08/01 00:31:06;;;;;;;8.77;4.88;;;20.60;99.90;;;;;;5031456;28;20084;-78
2022/08/01 00:33:32;;;;;;;9.88;5.22;;;20.70;99.90;;;;;;5030916;28;20044;-77
2022/08/01 00:35:58;;;;;;;6.90;5.18;;;20.60;99.90;;;;;;5030804;28;20033;-77
2022/08/01 00:38:24;;;;;;;7.20;5.22;;;20.60;99.90;;;;;;5029846;28;20041;-77
2022/08/01 00:40:50;;;;;;;8.75;5.03;;;20.60;99.90;;;;;;5030257;28;20026;-76
2022/08/01 00:43:16;;;;;;;7.95;5.20;;;20.50;99.90;;;;;;5030772;28;20044;-77
2022/08/01 00:45:42;;;;;;;8.43;5.60;;;20.70;99.90;;;;;;5030953;28;20033;-75
2022/08/01 00:48:08;;;;;;;6.72;4.50;;;20.70;99.90;;;;;;5030193;28;20052;-76
2022/08/01 00:50:34;;;;;;;11.18;5.05;;;20.70;99.90;;;;;;5030793;28;20026;-77
2022/08/01 00:53:00;;;;;;;14.98;6.18;;;20.70;99.90;;;;;;5029596;28;20443;-76
2022/08/01 00:55:30;;;;;;;10.50;5.32;;;20.60;99.90;;;;;;5030907;28;20045;-77
2022/08/01 00:57:58;;;;;;;10.93;5.13;;;20.70;99.90;;;;;;5030662;28;20041;-77
2022/08/01 01:00:25;;;;;;;9.20;5.38;;;20.70;99.90;;;;;;5030648;28;20091;-77
2022/08/01 01:02:51;;;;;;;7.68;5.35;;;20.80;99.90;;;;;;5030560;28;20033;-77
2022/08/01 01:05:16;;;;;;;7.47;4.22;;;20.70;99.90;;;;;;5031240;28;20026;-75
2022/08/01 01:07:59;;;;;;;8.02;5.00;;;20.70;99.90;;;;;;5031009;28;20341;-77
2022/08/01 01:10:53;;;;;;;13.77;4.80;;;20.60;99.90;;;;;;5030907;28;20050;-78
2022/08/01 01:13:33;;;;;;;10.25;5.15;;;20.70;99.90;;;;;;5029844;28;20029;-78
2022/08/01 01:16:04;;;;;;;12.63;4.95;;;20.80;99.90;;;;;;5030484;28;20089;-77
2022/08/01 01:18:38;;;;;;;8.88;5.65;;;20.80;99.90;;;;;;5030626;28;20044;-77
2022/08/01 01:21:19;;;;;;;8.55;4.72;;;20.80;99.90;;;;;;5030223;28;20034;-77
2022/08/01 01:23:44;;;;;;;9.35;4.88;;;20.80;99.90;;;;;;5030577;28;20034;-77
2022/08/01 01:26:13;;;;;;;12.63;5.13;;;20.70;99.90;;;;;;5029312;28;20430;-76
2022/08/01 01:28:51;;;;;;;8.57;5.30;;;20.60;99.90;;;;;;5031112;28;20022;-76
2022/08/01 01:31:19;;;;;;;;;;;20.60;99.90;;;;;;5030951;28;20041;-76
2022/08/01 01:33:45;;;;;;;15.32;5.40;;;20.60;99.90;;;;;;5030513;28;20270;-76
2022/08/01 01:36:13;;;;;;;7.90;5.60;;;20.60;99.90;;;;;;5019224;28;20030;-75
2022/08/01 01:38:44;;;;;;;9.68;5.20;;;20.50;99.90;;;;;;5009962;28;20103;-77
2022/08/01 01:41:16;;;;;;;8.60;5.18;;;20.40;99.90;;;;;;5010722;28;20022;-76
2022/08/01 01:43:43;;;;;;;9.35;4.38;;;20.40;99.90;;;;;;5010244;28;20368;-77
2022/08/01 01:46:12;;;;;;;7.05;4.45;;;20.40;99.90;;;;;;5010567;28;20099;-76
2022/08/01 01:48:39;;;;;;;7.55;4.40;;;20.50;99.90;;;;;;5011252;28;20372;-77
2022/08/01 01:51:06;;;;;;;6.28;3.85;;;20.50;99.90;;;;;;5010695;28;20034;-76
2022/08/01 01:53:34;;;;;;;8.02;3.20;;;20.40;99.90;;;;;;5010387;28;20173;-77
2022/08/01 01:56:00;;;;;;;;;;;20.30;99.90;;;;;;5010665;28;20346;-75
2022/08/01 01:58:28;;;;;;;3.53;3.15;;;20.30;99.90;;;;;;5010712;28;19919;-76
2022/08/01 02:00:58;;;;;;;7.63;3.75;;;20.30;99.90;;;;;;5014182;28;20026;-76
2022/08/01 02:03:26;;;;;;;7.32;3.67;;;20.40;99.90;;;;;;5014343;28;20034;-75
2022/08/01 02:05:53;;;;;;;5.85;3.92;;;20.40;99.90;;;;;;5014088;28;20660;-76
2022/08/01 02:08:23;;;;;;;5.68;3.47;;;20.30;99.90;;;;;;5014086;28;20030;-76
2022/08/01 02:13:38;;;;;;;4.57;3.55;;;20.40;99.90;;;;;;5014063;28;20131;-76
2022/08/01 02:16:08;;;;;;;8.00;4.47;;;20.30;99.90;;;;;;5013696;28;20030;-77
2022/08/01 02:18:34;;;;;;;7.20;3.70;;;20.30;99.90;;;;;;5012632;28;20507;-75
2022/08/01 02:21:08;;;;;;;7.10;3.45;;;20.40;99.90;;;;;;5013826;28;20034;-76
2022/08/01 02:23:36;;;;;;;8.90;3.53;;;20.30;99.90;;;;;;5013185;28;20025;-76
2022/08/01 02:26:04;;;;;;;;;;;20.20;99.90;;;;;;5013953;28;20034;-78
2022/08/01 02:28:35;;;;;;;3.50;2.72;;;20.20;99.90;;;;;;5012841;28;19945;-77
2022/08/01 02:31:08;;;;;;;4.25;3.00;;;20.30;99.90;;;;;;5013572;28;20500;-77
2022/08/01 02:33:47;;;;;;;3.42;2.75;;;20.20;99.90;;;;;;5013491;28;20030;-79
2022/08/01 02:36:15;;;;;;;3.08;2.60;;;20.30;99.90;;;;;;5013480;28;20096;-78
2022/08/01 02:38:44;;;;;;;3.92;3.53;;;20.30;99.90;;;;;;5012609;28;20396;-76
2022/08/01 02:41:18;;;;;;;4.00;3.60;;;20.30;99.90;;;;;;5013422;28;20364;-79
2022/08/01 02:43:49;;;;;;;4.65;3.83;;;20.30;99.90;;;;;;5013938;28;20037;-78
2022/08/01 02:46:27;;;;;;;5.55;3.67;;;20.30;99.90;;;;;;5013359;28;20088;-76
2022/08/01 02:48:56;;;;;;;4.00;3.58;;;20.30;99.90;;;;;;5012032;28;20260;-76
2022/08/01 02:51:24;;;;;;;9.43;4.32;;;20.40;99.90;;;;;;5012076;28;20061;-77
2022/08/01 02:53:53;;;;;;;5.55;4.10;;;20.40;99.90;;;;;;5013095;28;20026;-79
2022/08/01 02:56:20;;;;;;;5.57;4.72;;;20.30;99.90;;;;;;5012897;28;20146;-78
2022/08/01 02:58:47;;;;;;;4.88;4.20;;;20.30;99.90;;;;;;5012246;28;20360;-77
2022/08/01 03:01:16;;;;;;;10.30;4.40;;;20.30;99.90;;;;;;5013521;28;20105;-76
2022/08/01 03:03:42;;;;;;;4.35;3.95;;;20.30;99.90;;;;;;5013054;28;20022;-78
2022/08/01 03:06:08;;;;;;;5.18;3.92;;;20.30;99.90;;;;;;5012790;28;20030;-78
2022/08/01 03:08:36;;;;;;;6.38;4.38;;;20.20;99.90;;;;;;5013302;28;20444;-75
2022/08/01 03:11:05;;;;;;;4.10;3.13;;;20.30;99.90;;;;;;5012761;28;20344;-76
2022/08/01 03:13:32;;;;;;;9.73;2.95;;;20.20;99.90;;;;;;5013080;28;20022;-75
2022/08/01 03:15:59;;;;;;;3.33;2.72;;;20.20;99.90;;;;;;5011777;28;20412;-77
2022/08/01 03:18:26;;;;;;;;;;;20.20;99.90;;;;;;5013395;28;20033;-77
2022/08/01 03:20:55;;;;;;;2.50;1.80;;;20.30;99.90;;;;;;5012675;28;19914;-75
2022/08/01 03:23:22;;;;;;;3.63;2.22;;;20.30;99.90;;;;;;5012272;28;20022;-77
2022/08/01 03:25:49;;;;;;;3.03;1.92;;;20.30;99.90;;;;;;5013227;28;20037;-77
2022/08/01 03:28:16;;;;;;;2.70;2.10;;;20.30;99.90;;;;;;5012799;28;20103;-77
2022/08/01 03:30:42;;;;;;;2.95;2.35;;;20.10;99.90;;;;;;5012382;28;20173;-77
2022/08/01 03:33:09;;;;;;;2.45;2.22;;;20.20;99.90;;;;;;5011304;28;20034;-77
2022/08/01 03:35:39;;;;;;;2.40;2.20;;;20.20;99.90;;;;;;5012413;28;20530;-77
2022/08/01 03:38:10;;;;;;;3.03;2.38;;;20.20;99.90;;;;;;5012616;28;20029;-78
2022/08/01 03:40:40;;;;;;;2.88;2.55;;;20.10;99.90;;;;;;5012778;28;20028;-80
2022/08/01 03:43:19;;;;;;;4.68;1.90;;;20.20;99.90;;;;;;5012247;28;20026;-78
2022/08/01 03:45:49;;;;;;;1.55;1.23;;;20.20;99.90;;;;;;5012226;28;20412;-78
2022/08/01 03:48:18;;;;;;;3.92;1.67;;;20.20;99.90;;;;;;5012325;28;20056;-78
2022/08/01 03:50:48;;;;;;;5.05;1.92;;;20.20;99.90;;;;;;5012349;28;20532;-76
2022/08/01 03:53:14;;;;;;;3.13;1.30;;;20.10;99.90;;;;;;5011028;28;20423;-77
2022/08/01 03:55:43;;;;;;;1.75;0.85;;;20.10;99.90;;;;;;5012217;28;20030;-77
2022/08/01 03:58:10;;;;;;;1.70;1.38;;;20.20;99.90;;;;;;5012286;28;20042;-76
2022/08/01 04:00:40;;;;;;;1.85;1.20;;;20.20;99.90;;;;;;5010890;28;20089;-77
2022/08/01 04:03:10;;;;;;;1.90;1.02;;;20.20;99.90;;;;;;5010588;28;20030;-76
2022/08/01 04:05:36;;;;;;;1.65;1.33;;;20.20;99.90;;;;;;5011966;28;20037;-77
2022/08/01 04:08:02;;;;;;;3.88;1.80;;;20.00;99.90;;;;;;5012411;28;20322;-77
2022/08/01 04:10:28;;;;;;;4.40;1.73;;;20.00;99.90;;;;;;5012062;28;20029;-78
2022/08/01 04:12:54;;;;;;;2.78;2.00;;;19.90;99.90;;;;;;5011768;28;20440;-78
2022/08/01 04:15:20;;;;;;;2.20;1.88;;;20.00;99.90;;;;;;5010579;28;20479;-75
2022/08/01 04:17:46;;;;;;;3.75;2.10;;;20.10;99.90;;;;;;5010321;28;20072;-77
2022/08/01 04:20:12;;;;;;;4.55;2.00;;;20.10;99.90;;;;;;5011694;28;20491;-78
2022/08/01 04:22:39;;;;;;;2.65;2.10;;;20.00;99.90;;;;;;5010017;28;20320;-79
2022/08/01 04:25:14;;;;;;;5.25;1.90;;;19.90;99.90;;;;;;5011619;28;20100;-80
2022/08/01 04:27:45;;;;;;;2.75;2.00;;;20.00;99.90;;;;;;5011949;28;20033;-78
2022/08/01 04:30:11;;;;;;;3.45;2.22;;;20.00;99.90;;;;;;5011685;28;20041;-78
2022/08/01 04:32:39;;;;;;;3.28;2.45;;;20.10;99.90;;;;;;5010456;28;20319;-79
2022/08/01 04:35:09;;;;;;;5.30;3.17;;;20.20;99.90;;;;;;5011254;28;20018;-79
2022/08/01 04:37:36;;;;;;;6.00;3.72;;;20.20;99.90;;;;;;5011658;28;20085;-77
2022/08/01 04:40:07;;;;;;;5.47;4.13;;;20.20;99.90;;;;;;5010244;28;20045;-78
2022/08/01 04:42:33;;;;;;;5.60;4.75;;;20.10;99.90;;;;;;5011308;28;20069;-77
2022/08/01 04:44:59;;;;;;;9.07;6.15;;;20.20;99.90;;;;;;5011249;28;20081;-77
2022/08/01 04:47:26;;;;;;;10.90;6.28;;;20.10;99.90;;;;;;5011120;28;20022;-77
2022/08/01 04:49:53;;;;;;;8.15;6.47;;;20.00;99.90;;;;;;5010625;28;20030;-79
2022/08/01 04:52:19;;;;;;;9.48;5.40;;;20.00;99.90;;;;;;5011142;28;20169;-79
2022/08/01 04:54:46;;;;;;;6.30;5.13;;;20.10;99.90;;;;;;5011390;28;20077;-78
2022/08/01 04:57:12;;;;;;;6.35;5.35;;;20.10;99.90;;;;;;5011426;28;20053;-79
2022/08/01 04:59:41;;;;;;;8.38;5.72;;;20.20;99.90;;;;;;5011838;28;20030;-79
2022/08/01 05:02:18;;;;;;;7.15;5.80;;;20.10;99.90;;;;;;5011496;28;20041;-78
2022/08/01 05:04:45;;;;;;;9.57;5.65;;;20.10;99.90;;;;;;5012412;28;20356;-79
2022/08/01 05:07:12;;;;;;;6.70;5.37;;;20.20;99.90;;;;;;5010476;28;20038;-80
2022/08/01 05:09:41;;;;;;;6.93;5.97;;;20.30;99.90;;;;;;5011238;28;20037;-78
2022/08/01 05:12:08;;;;;;;8.00;5.57;;;20.30;99.90;;;;;;5010733;28;20530;-78
2022/08/01 05:14:34;;;;;;;7.05;5.25;;;20.30;99.90;;;;;;5010817;28;20030;-76
2022/08/01 05:17:04;;;;;;;34.08;21.30;;;20.30;99.90;;;;;;5010934;28;20319;-75
2022/08/01 05:19:31;;;;;;;32.17;18.83;;;20.30;99.90;;;;;;5011025;28;20396;-75
2022/08/01 05:22:01;;;;;;;5.68;4.70;;;20.30;99.90;;;;;;5009877;28;20038;-81
2022/08/01 05:24:28;;;;;;;8.23;4.60;;;20.40;99.90;;;;;;5011565;28;20026;-77
2022/08/01 05:26:55;;;;;;;13.95;8.00;;;20.40;99.90;;;;;;5011887;28;20044;-76
2022/08/01 05:29:20;;;;;;;56.10;32.47;;;20.30;99.90;;;;;;5014185;28;20034;-83
2022/08/01 05:31:46;;;;;;;12.55;8.43;;;20.40;99.90;;;;;;5011812;28;20441;-78
2022/08/01 05:34:12;;;;;;;9.38;5.32;;;20.30;99.90;;;;;;5012602;28;20034;-78
2022/08/01 05:36:37;;;;;;;6.10;3.65;;;20.40;99.90;;;;;;5015131;28;20034;-78
2022/08/01 05:39:04;;;;;;;7.53;3.72;;;20.30;99.90;;;;;;5013861;28;20350;-78
2022/08/01 05:41:30;;;;;;;4.88;3.63;;;20.30;99.90;;;;;;5014818;28;20022;-84
2022/08/01 05:43:55;;;;;;;4.43;3.95;;;20.30;99.90;;;;;;5015180;28;20105;-79
2022/08/01 05:46:21;;;;;;;4.28;3.63;;;20.30;99.90;;;;;;5014580;28;20456;-81
2022/08/01 05:48:47;;;;;;;4.60;4.00;;;20.40;99.90;;;;;;5014653;28;20176;-81
2022/08/01 05:51:13;;;;;;;5.40;3.70;;;20.50;99.90;;;;;;5013853;28;20091;-81
2022/08/01 05:53:39;;;;;;;4.15;3.67;;;20.50;99.90;;;;;;5014850;28;20034;-80
2022/08/01 05:56:07;;;;;;;22.02;11.15;;;20.50;99.90;;;;;;5013216;28;20049;-82
2022/08/01 05:58:33;;;;;;;11.65;6.78;;;20.50;99.90;;;;;;5014252;28;20036;-82
2022/08/01 06:00:59;;;;;;;14.80;8.07;;;20.60;99.90;;;;;;5014320;28;20045;-81
2022/08/01 06:03:24;;;;;;;7.05;5.03;;;20.60;99.90;;;;;;5014160;28;20026;-72
2022/08/01 06:05:53;;;;;;;5.35;3.40;;;20.60;99.90;;;;;;5013457;28;20026;-77
2022/08/01 06:08:19;;;;;;;4.55;3.67;;;20.40;99.90;;;;;;5014305;28;20026;-83
2022/08/01 06:10:44;;;;;;;17.50;11.77;;;20.30;99.90;;;;;;5014690;28;20076;-76
2022/08/01 06:13:10;;;;;;;172.18;107.25;;;20.40;99.90;;;;;;5014077;28;20464;-77
2022/08/01 06:15:36;;;;;;;22.92;14.60;;;20.40;99.90;;;;;;5013914;28;20495;-79
2022/08/01 06:18:01;;;;;;;6.07;3.67;;;20.60;99.90;;;;;;5013479;28;20480;-72
2022/08/01 06:20:27;;;;;;;9.60;6.72;;;20.60;99.90;;;;;;5013418;28;20368;-75
2022/08/01 06:22:54;;;;;;;27.88;18.42;;;20.60;99.90;;;;;;5014170;28;20044;-72
2022/08/01 06:25:20;;;;;;;38.25;21.55;;;20.60;99.90;;;;;;5004250;28;20045;-74
2022/08/01 06:27:46;;;;;;;7.90;5.63;;;20.60;99.90;;;;;;5008580;28;20389;-77
2022/08/01 06:30:11;;;;;;;13.52;11.05;;;20.70;99.90;;;;;;5014012;28;20026;-79
2022/08/01 06:32:37;;;;;;;12.88;8.70;;;20.70;99.90;;;;;;5013676;28;20400;-78
2022/08/01 06:35:03;;;;;;;4.95;4.00;;;20.60;99.90;;;;;;5013361;28;20104;-76
2022/08/01 06:37:31;;;;;;;4.85;4.25;;;20.60;99.90;;;;;;5013711;28;20121;-76
2022/08/01 06:40:04;;;;;;;4.10;3.53;;;20.60;99.90;;;;;;5028804;28;20049;-75
2022/08/01 06:42:37;;;;;;;4.90;3.45;;;20.60;99.90;;;;;;5014047;28;20068;-75
2022/08/01 06:45:07;;;;;;;4.40;3.28;;;20.60;99.90;;;;;;5013683;28;20038;-77
2022/08/01 06:47:33;;;;;;;6.28;3.47;;;20.60;99.90;;;;;;5028034;28;20026;-77
2022/08/01 06:49:59;;;;;;;2.78;2.50;;;20.60;99.90;;;;;;5013619;28;20116;-77
2022/08/01 06:52:25;;;;;;;4.25;3.22;;;20.70;99.90;;;;;;5009028;28;20453;-74
2022/08/01 06:54:51;;;;;;;10.30;4.57;;;20.70;99.90;;;;;;5008219;28;20069;-75
2022/08/01 06:57:18;;;;;;;4.75;4.25;;;20.80;99.90;;;;;;5012936;28;20457;-71
2022/08/01 06:59:43;;;;;;;4.13;3.72;;;20.80;99.90;;;;;;5013256;28;20080;-74
2022/08/01 07:02:09;;;;;;;5.60;4.22;;;20.90;99.90;;;;;;5013076;28;20026;-83
2022/08/01 07:04:35;;;;;;;5.10;4.45;;;20.90;99.90;;;;;;5017783;28;20029;-81
2022/08/01 07:07:01;;;;;;;6.93;4.55;;;21.00;99.90;;;;;;5013181;28;20053;-80
2022/08/01 07:09:27;;;;;;;5.50;4.68;;;21.00;99.90;;;;;;5013912;28;20030;-82
2022/08/01 07:11:53;;;;;;;5.82;4.95;;;21.00;99.90;;;;;;5024985;28;20034;-80
2022/08/01 07:14:22;;;;;;;11.95;4.78;;;21.00;99.90;;;;;;5014592;28;20464;-80
2022/08/01 07:16:49;;;;;;;5.70;4.53;;;21.10;99.90;;;;;;5013735;28;20029;-81
2022/08/01 07:19:15;;;;;;;5.88;4.20;;;21.00;99.90;;;;;;5028897;28;20022;-80
2022/08/01 07:21:41;;;;;;;6.65;4.38;;;21.10;99.90;;;;;;5013018;28;20147;-81
2022/08/01 07:24:13;;;;;;;22.90;14.80;;;21.20;99.90;;;;;;5012732;28;20065;-77
2022/08/01 07:26:43;;;;;;;88.05;55.28;;;21.30;99.90;;;;;;5013609;28;20117;-78
2022/08/01 07:29:08;;;;;;;56.10;22.45;;;21.40;99.90;;;;;;5028129;28;20060;-84
2022/08/01 07:31:34;;;;;;;15.68;4.80;;;21.40;99.90;;;;;;5011975;28;20049;-80
2022/08/01 07:34:00;;;;;;;20.67;3.55;;;21.50;99.90;;;;;;5013399;28;20552;-78
2022/08/01 07:36:26;;;;;;;12.38;3.67;;;21.50;99.90;;;;;;5014017;28;20092;-84
2022/08/01 07:38:51;;;;;;;10.00;2.70;;;21.60;99.90;;;;;;5013069;28;20495;-81
2022/08/01 07:41:17;;;;;;;3.17;2.45;;;21.50;99.90;;;;;;5012287;28;20029;-78
2022/08/01 07:43:43;;;;;;;3.38;2.10;;;21.60;99.90;;;;;;5018168;28;20037;-82
2022/08/01 07:46:09;;;;;;;4.63;2.53;;;21.50;99.90;;;;;;5021183;28;20540;-81
2022/08/01 07:48:35;;;;;;;7.15;2.60;;;21.50;99.90;;;;;;5020636;28;20479;-81
2022/08/01 07:51:00;;;;;;;2.60;2.20;;;21.60;99.90;;;;;;5018650;28;20123;-82
2022/08/01 07:53:26;;;;;;;3.03;1.75;;;21.60;99.90;;;;;;5015926;28;20475;-76
2022/08/01 07:55:52;;;;;;;3.65;1.70;;;21.40;99.90;;;;;;5012323;28;20328;-78
2022/08/01 07:58:17;;;;;;;7.32;2.13;;;21.40;99.90;;;;;;5013355;28;20563;-78
2022/08/01 08:00:44;;;;;;;1.75;1.63;;;21.40;99.90;;;;;;5013466;28;20040;-76
2022/08/01 08:03:09;;;;;;;2.35;2.15;;;21.40;99.90;;;;;;5013016;28;20034;-78
2022/08/01 08:05:35;;;;;;;5.53;2.33;;;21.40;99.90;;;;;;5014736;28;20479;-81
2022/08/01 08:08:10;;;;;;;2.97;2.63;;;21.40;99.90;;;;;;5012847;28;20026;-79
2022/08/01 08:10:36;;;;;;;3.35;2.40;;;21.20;99.90;;;;;;5012519;28;20112;-78
2022/08/01 08:13:02;;;;;;;2.67;2.47;;;21.10;99.90;;;;;;5012273;28;20041;-81
2022/08/01 08:15:28;;;;;;;3.85;3.17;;;21.00;99.90;;;;;;5012934;28;20476;-82
2022/08/01 08:17:54;;;;;;;3.70;3.38;;;20.70;99.90;;;;;;5013379;28;20038;-82
2022/08/01 08:20:24;;;;;;;3.67;3.03;;;20.70;99.90;;;;;;5011612;28;20487;-78
2022/08/01 08:22:51;;;;;;;4.60;3.80;;;20.70;99.90;;;;;;5012507;28;20420;-80
2022/08/01 08:25:19;;;;;;;10.35;7.65;;;20.70;99.90;;;;;;5028008;28;20042;-76
2022/08/01 08:27:46;;;;;;;13.57;12.20;;;20.80;99.90;;;;;;5011683;28;20334;-81
2022/08/01 08:30:12;;;;;;;5.90;3.85;;;20.80;99.90;;;;;;5011666;28;20030;-80
2022/08/01 08:32:38;;;;;;;5.40;4.35;;;20.90;99.90;;;;;;5027155;28;20510;-78
2022/08/01 08:35:06;;;;;;;7.68;4.03;;;20.80;99.90;;;;;;5011680;28;20064;-79
2022/08/01 08:37:32;;;;;;;6.80;4.60;;;20.90;99.90;;;;;;5027080;28;20026;-77
2022/08/01 08:39:58;;;;;;;4.97;4.20;;;21.00;99.90;;;;;;5011312;28;20168;-78
2022/08/01 08:42:24;;;;;;;6.80;4.45;;;21.20;99.90;;;;;;5011730;28;20113;-80
2022/08/01 08:44:50;;;;;;;8.23;4.82;;;21.20;99.90;;;;;;5026731;28;20464;-77
2022/08/01 08:47:17;;;;;;;5.00;4.50;;;21.10;99.90;;;;;;5011314;28;20105;-84
2022/08/01 08:49:44;;;;;;;5.45;4.38;;;21.20;99.90;;;;;;5011825;28;20030;-79
2022/08/01 08:52:11;;;;;;;10.23;5.93;;;21.60;99.90;;;;;;5011452;28;20248;-78
2022/08/01 08:54:41;;;;;;;3.05;2.75;;;21.70;99.90;;;;;;5011452;28;20093;-78
2022/08/01 08:57:07;;;;;;;4.25;3.55;;;21.70;99.90;;;;;;5010807;28;20392;-78
2022/08/01 08:59:33;;;;;;;5.63;2.85;;;21.80;99.90;;;;;;5011643;28;20043;-80
2022/08/01 09:01:59;;;;;;;6.22;3.00;;;21.70;99.90;;;;;;5012318;28;20032;-78
2022/08/01 09:04:26;;;;;;;11.20;3.30;;;21.50;99.90;;;;;;5013553;28;20061;-88
2022/08/01 09:06:52;;;;;;;8.73;3.38;;;21.60;99.90;;;;;;5010140;28;20040;-84
2022/08/01 09:09:18;;;;;;;12.07;3.33;;;21.70;99.90;;;;;;5012590;28;20042;-86
2022/08/01 09:11:44;;;;;;;4.60;3.22;;;21.70;99.90;;;;;;5013819;28;20069;-85
2022/08/01 09:14:23;;;;;;;6.60;3.85;;;21.60;99.90;;;;;;5012918;28;20088;-83
2022/08/01 09:17:06;;;;;;;123.57;86.07;;;21.80;99.90;;;;;;5010826;28;20018;-80
2022/08/01 09:19:41;;;;;;;156.02;87.18;;;21.80;99.90;;;;;;5011320;28;20041;-82
2022/08/01 09:22:17;;;;;;;17.60;9.77;;;21.90;99.90;;;;;;5010898;28;20140;-81
2022/08/01 09:25:01;;;;;;;5.82;4.60;;;21.90;99.90;;;;;;5012487;28;20032;-86
2022/08/01 09:27:27;;;;;;;10.27;3.22;;;21.80;99.90;;;;;;5012915;28;20030;-87
2022/08/01 09:29:54;;;;;;;4.60;3.10;;;21.70;99.90;;;;;;5012937;28;20041;-83
2022/08/01 09:32:20;;;;;;;4.53;3.37;;;21.80;99.90;;;;;;5011080;28;20060;-86
2022/08/01 09:34:46;;;;;;;6.97;3.00;;;21.70;99.90;;;;;;5012305;28;20017;-83
2022/08/01 09:37:17;;;;;;;16.70;3.92;;;21.80;99.90;;;;;;5011076;28;20574;-82
2022/08/01 09:39:45;;;;;;;16.08;12.32;;;21.90;99.90;;;;;;5010974;28;20099;-88
2022/08/01 09:42:21;;;;;;;;;;;21.70;99.90;;;;;;5027143;28;20026;-86
2022/08/01 09:44:48;;;;;;;5.83;3.60;;;21.70;99.90;;;;;;5026300;28;19960;-85
2022/08/01 09:47:14;;;;;;;10.73;4.72;;;21.80;99.90;;;;;;5026784;28;20022;-84
2022/08/01 09:49:41;;;;;;;7.00;4.60;;;21.70;99.90;;;;;;5010569;28;20030;-82
2022/08/01 09:52:16;;;;;;;7.65;3.88;;;21.70;99.90;;;;;;5027757;28;20107;-84
2022/08/01 09:54:51;;;;;;;5.97;3.72;;;21.70;99.90;;;;;;5012179;28;20557;-85
2022/08/01 09:57:19;;;;;;;8.18;3.03;;;21.80;99.90;;;;;;5010869;28;20038;-84
2022/08/01 09:59:48;;;;;;;5.47;2.95;;;21.90;99.40;;;;;;5011015;28;20049;-80
2022/08/01 10:02:28;;;;;;;4.47;3.33;;;22.00;99.40;;;;;;5019738;28;20104;-83
2022/08/01 10:04:54;;;;;;;3.53;3.00;;;22.00;99.60;;;;;;5031029;28;20384;-81
2022/08/01 10:07:22;;;;;;;17.00;4.05;;;21.90;99.00;;;;;;5030466;28;20045;-80
2022/08/01 10:09:48;;;;;;;14.90;3.65;;;22.00;99.10;;;;;;5029599;28;20042;-81
2022/08/01 10:12:16;;;;;;;8.90;3.97;;;21.90;99.40;;;;;;5030633;28;20415;-81
2022/08/01 10:14:44;;;;;;;9.70;3.42;;;21.90;99.60;;;;;;5030557;28;20037;-81
2022/08/01 10:17:16;;;;;;;5.45;3.30;;;22.00;99.80;;;;;;5030223;28;20025;-82
2022/08/01 10:19:43;;;;;;;13.50;3.50;;;21.80;99.30;;;;;;5030907;28;20018;-83
2022/08/01 10:22:17;;;;;;;9.50;3.78;;;21.80;99.60;;;;;;5033126;28;20037;-83
2022/08/01 10:24:46;;;;;;;4.90;3.05;;;21.90;99.90;;;;;;5034163;28;20040;-80
2022/08/01 10:27:15;;;;;;;11.43;3.40;;;21.80;99.40;;;;;;5033608;28;20043;-80
2022/08/01 10:29:45;;;;;;;11.52;3.10;;;21.70;99.50;;;;;;5033953;28;20041;-81
2022/08/01 10:32:11;;;;;;;9.43;2.78;;;21.70;99.40;;;;;;5033799;28;20029;-81
2022/08/01 10:34:37;;;;;;;6.38;2.85;;;21.60;99.50;;;;;;5034371;28;20351;-80
2022/08/01 10:37:05;;;;;;;5.05;2.50;;;21.60;99.60;;;;;;5033554;28;20052;-81
2022/08/01 10:39:32;;;;;;;10.05;3.00;;;21.80;99.80;;;;;;5032710;28;20025;-82
2022/08/01 10:41:58;;;;;;;5.38;2.03;;;21.80;99.80;;;;;;5033602;28;20313;-81
2022/08/01 10:44:29;;;;;;;6.82;1.92;;;21.90;99.50;;;;;;5032416;28;20049;-85
2022/08/01 10:47:10;;;;;;;8.40;2.47;;;22.00;99.00;;;;;;5033953;28;20454;-83
2022/08/01 10:49:53;;;;;;;6.10;2.67;;;22.20;99.00;;;;;;5032167;28;20114;-81
2022/08/01 10:52:20;;;;;;;3.03;1.30;;;22.20;98.40;;;;;;5033991;28;20021;-88
2022/08/01 10:54:46;;;;;;;12.90;2.35;;;22.40;98.20;;;;;;5032662;28;20110;-84
2022/08/01 10:57:13;;;;;;;4.05;1.60;;;22.50;98.40;;;;;;5032020;28;20132;-84
2022/08/01 10:59:50;;;;;;;5.77;1.77;;;22.60;97.90;;;;;;5033262;28;20479;-84
2022/08/01 11:02:30;;;;;;;11.00;2.13;;;22.80;98.00;;;;;;5033429;28;20251;-81
2022/08/01 11:05:03;;;;;;;8.88;1.67;;;22.80;97.30;;;;;;5032822;28;20164;-83
2022/08/01 11:07:47;;;;;;;9.95;1.85;;;22.60;97.30;;;;;;5033425;28;20049;-82
2022/08/01 11:10:29;;;;;;;7.07;1.60;;;22.50;97.30;;;;;;5033395;28;20478;-82
2022/08/01 11:12:54;;;;;;;6.63;1.90;;;22.60;97.80;;;;;;5033126;28;20495;-83
2022/08/01 11:15:25;;;;;;;13.90;2.20;;;22.60;97.40;;;;;;5033124;28;20125;-81
2022/08/01 11:17:51;;;;;;;4.40;1.50;;;22.50;97.70;;;;;;5033090;28;20044;-81
2022/08/01 11:20:29;;;;;;;3.53;1.50;;;22.20;97.20;;;;;;5033014;28;20029;-82
2022/08/01 11:25:35;;;;;;;10.52;3.85;;;22.60;97.50;;;;;;5033468;28;20044;-85
2022/08/01 11:28:16;;;;;;;13.13;3.03;;;22.80;97.00;;;;;;5033416;28;20109;-80
2022/08/01 11:30:45;;;;;;;5.38;2.00;;;22.70;96.20;;;;;;5033086;28;20091;-82
2022/08/01 11:33:12;;;;;;;7.78;2.03;;;22.80;96.40;;;;;;5032436;28;20025;-86
2022/08/01 11:36:10;;;;;;;6.95;2.28;;;22.80;95.90;;;;;;5032439;28;20064;-81
2022/08/01 11:38:37;;;;;;;7.00;1.70;;;23.20;95.80;;;;;;5032257;28;20037;-80
2022/08/01 11:41:11;;;;;;;5.10;1.80;;;23.40;95.00;;;;;;5032199;28;20053;-82
2022/08/01 11:44:00;;;;;;;4.10;1.30;;;23.30;94.70;;;;;;5032915;28;20113;-79
2022/08/01 11:46:45;;;;;;;8.95;1.70;;;23.60;94.80;;;;;;5032670;28;20037;-79
2022/08/01 11:49:23;;;;;;;6.53;2.00;;;23.60;93.70;;;;;;5032359;28;20022;-81
2022/08/01 11:51:56;;;;;;;13.48;1.77;;;23.50;94.20;;;;;;5032661;28;20037;-81
2022/08/01 11:54:29;;;;;;;7.40;2.42;;;23.40;94.30;;;;;;5032426;28;20100;-82
2022/08/01 11:56:56;;;;;;;9.68;2.42;;;23.50;94.80;;;;;;5030745;28;20544;-78
2022/08/01 11:59:22;;;;;;;4.37;1.70;;;23.60;94.20;;;;;;5031791;28;20099;-82
2022/08/01 12:01:48;;;;;;;11.50;2.10;;;23.50;94.20;;;;;;5032850;28;20334;-80
2022/08/01 12:04:14;;;;;;;4.68;1.92;;;23.50;94.00;;;;;;5032588;28;20120;-83
2022/08/01 12:06:39;;;;;;;13.82;2.20;;;23.60;94.00;;;;;;5032746;28;20029;-82
2022/08/01 12:09:23;;;;;;;18.90;2.63;;;23.60;94.20;;;;;;5032235;28;20025;-81
2022/08/01 12:11:49;;;;;;;8.68;2.40;;;23.70;94.20;;;;;;5030614;28;20032;-80
2022/08/01 12:14:21;;;;;;;6.20;1.80;;;23.70;94.60;;;;;;5032328;28;20048;-80
2022/08/01 12:16:54;;;;;;;4.43;1.83;;;23.60;94.20;;;;;;5031687;28;20033;-76
2022/08/01 12:19:22;;;;;;;6.40;2.28;;;23.50;93.60;;;;;;5032383;28;20034;-87
2022/08/01 12:22:12;;;;;;;5.88;1.90;;;23.50;93.00;;;;;;5031872;28;20170;-84
2022/08/01 12:24:40;;;;;;;3.65;1.40;;;23.40;92.70;;;;;;5032032;28;20026;-85
2022/08/01 12:27:06;;;;;;;;;;;23.50;93.10;;;;;;5033413;28;20053;-86
2022/08/01 12:29:37;;;;;;;5.95;2.25;;;23.60;92.90;;;;;;5032064;28;19974;-86
2022/08/01 12:32:03;;;;;;;10.85;2.22;;;23.70;93.00;;;;;;5031833;28;20025;-85
2022/08/01 12:34:30;;;;;;;3.50;1.77;;;23.70;92.80;;;;;;5032596;28;20025;-83
2022/08/01 12:36:58;;;;;;;7.00;1.85;;;23.70;92.90;;;;;;5031988;28;20044;-86
2022/08/01 12:39:33;;;;;;;11.05;2.10;;;23.80;93.10;;;;;;5031850;28;20063;-84
2022/08/01 12:41:59;;;;;;;8.57;2.22;;;23.80;93.00;;;;;;5031684;28;20097;-81
2022/08/01 12:44:29;;;;;;;9.18;1.88;;;23.60;92.80;;;;;;5030987;28;20175;-79
2022/08/01 12:46:56;;;;;;;8.80;2.08;;;23.60;93.10;;;;;;5032073;28;20029;-78
2022/08/01 12:49:22;;;;;;;5.00;1.65;;;23.70;92.80;;;;;;5031497;28;20107;-79
2022/08/01 12:51:49;;;;;;;4.63;1.70;;;23.80;93.10;;;;;;5032395;28;20033;-81
2022/08/01 12:54:15;;;;;;;57.15;28.35;;;23.90;92.60;;;;;;5032289;28;20061;-83
2022/08/01 12:56:41;;;;;;;96.75;53.60;;;24.00;92.40;;;;;;5031881;28;20057;-83
2022/08/01 12:59:32;;;;;;;9.45;3.30;;;24.10;92.50;;;;;;5031473;28;20021;-89